sensor_id;sensor_type;location;lat;lon;timestamp;P1;P2;P0
77354;PMS7003;66422;51.202;19.936;2024-03-23T00:53:56;18.00;13.50;8.00
77354;PMS7003;66422;51.202;19.936;2024-03-23T01:09:16;26.00;20.67;14.00
77354;PMS7003;66422;51.202;19.936;2024-03-23T01:24:36;17.33;16.67;11.00
77354;PMS7003;66422;51.202;19.936;2024-03-23T01:39:56;32.00;23.00;13.00
77354;PMS7003;66422;51.202;19.936;2024-03-23T01:55:16;31.00;24.00;14.00
77354;PMS7003;66422;51.202;19.936;2024-03-23T02:10:36;34.00;26.00;16.00
77354;PMS7003;66422;51.202;19.936;2024-03-23T02:25:56;39.67;28.33;17.33
77354;PMS7003;66422;51.202;19.936;2024-03-23T02:41:15;32.50;27.00;18.50
77354;PMS7003;66422;51.202;19.936;2024-03-23T02:56:42;38.00;26.00;17.00
77354;PMS7003;66422;51.202;19.936;2024-03-23T03:12:01;45.67;36.00;23.00
77354;PMS7003;66422;51.202;19.936;2024-03-23T03:27:22;44.00;34.00;23.00
77354;PMS7003;66422;51.202;19.936;2024-03-23T03:42:42;50.00;37.00;21.00
77354;PMS7003;66422;51.202;19.936;2024-03-23T03:58:02;45.50;31.50;21.00
77354;PMS7003;66422;51.202;19.936;2024-03-23T04:13:22;45.00;30.00;20.50
77354;PMS7003;66422;51.202;19.936;2024-03-23T04:28:42;49.50;36.00;23.00
77354;PMS7003;66422;51.202;19.936;2024-03-23T04:44:02;51.50;35.00;22.50
77354;PMS7003;66422;51.202;19.936;2024-03-23T04:59:22;53.67;38.67;24.67
77354;PMS7003;66422;51.202;19.936;2024-03-23T05:14:42;51.67;37.00;24.33
77354;PMS7003;66422;51.202;19.936;2024-03-23T05:30:02;45.75;32.25;20.75
77354;PMS7003;66422;51.202;19.936;2024-03-23T05:45:23;69.67;50.33;31.00
77354;PMS7003;66422;51.202;19.936;2024-03-23T06:00:43;37.75;24.00;14.00
77354;PMS7003;66422;51.202;19.936;2024-03-23T06:16:03;45.00;31.00;21.00
77354;PMS7003;66422;51.202;19.936;2024-03-23T06:31:24;39.25;26.75;17.00
77354;PMS7003;66422;51.202;19.936;2024-03-23T06:46:43;42.33;30.00;19.33
77354;PMS7003;66422;51.202;19.936;2024-03-23T07:02:04;35.33;27.00;16.67
77354;PMS7003;66422;51.202;19.936;2024-03-23T07:17:25;54.00;34.00;23.00
77354;PMS7003;66422;51.202;19.936;2024-03-23T07:32:45;43.50;29.00;18.50
77354;PMS7003;66422;51.202;19.936;2024-03-23T07:48:04;47.00;37.00;21.00
77354;PMS7003;66422;51.202;19.936;2024-03-23T08:03:25;43.00;37.67;24.00
77354;PMS7003;66422;51.202;19.936;2024-03-23T08:18:44;47.00;36.00;22.00
77354;PMS7003;66422;51.202;19.936;2024-03-23T08:34:04;57.50;40.50;25.00
77354;PMS7003;66422;51.202;19.936;2024-03-23T08:49:23;51.50;36.50;23.00
77354;PMS7003;66422;51.202;19.936;2024-03-23T09:04:44;47.33;37.67;26.00
77354;PMS7003;66422;51.202;19.936;2024-03-23T09:20:04;51.00;39.00;25.00
77354;PMS7003;66422;51.202;19.936;2024-03-23T09:35:25;32.00;28.00;18.00
77354;PMS7003;66422;51.202;19.936;2024-03-23T09:50:45;36.67;30.00;22.33
77354;PMS7003;66422;51.202;19.936;2024-03-23T10:06:05;33.00;30.00;21.00
77354;PMS7003;66422;51.202;19.936;2024-03-23T10:21:25;33.00;31.00;21.00
77354;PMS7003;66422;51.202;19.936;2024-03-23T10:36:45;23.00;22.67;18.00
77354;PMS7003;66422;51.202;19.936;2024-03-23T10:52:05;24.50;23.50;16.00
77354;PMS7003;66422;51.202;19.936;2024-03-23T11:07:28;32.00;23.00;16.00
77354;PMS7003;66422;51.202;19.936;2024-03-23T11:22:50;27.75;23.25;17.50
77354;PMS7003;66422;51.202;19.936;2024-03-23T11:38:11;17.50;16.50;10.00
77354;PMS7003;66422;51.202;19.936;2024-03-23T11:53:37;17.00;13.00;10.00
77354;PMS7003;66422;51.202;19.936;2024-03-23T12:09:05;13.00;11.00;8.67
77354;PMS7003;66422;51.202;19.936;2024-03-23T12:24:25;12.33;11.33;8.00
77354;PMS7003;66422;51.202;19.936;2024-03-23T12:39:45;11.00;10.75;9.00
77354;PMS7003;66422;51.202;19.936;2024-03-23T12:55:05;14.00;12.33;9.33
77354;PMS7003;66422;51.202;19.936;2024-03-23T13:10:25;12.50;11.00;10.00
77354;PMS7003;66422;51.202;19.936;2024-03-23T13:25:51;13.67;8.67;7.00
77354;PMS7003;66422;51.202;19.936;2024-03-23T13:41:15;9.00;8.00;7.00
77354;PMS7003;66422;51.202;19.936;2024-03-23T13:56:34;12.00;11.00;9.00
77354;PMS7003;66422;51.202;19.936;2024-03-23T14:11:54;12.67;8.00;7.00
77354;PMS7003;66422;51.202;19.936;2024-03-23T20:58:49;9.50;8.00;5.50
77354;PMS7003;66422;51.202;19.936;2024-03-23T21:14:08;18.25;10.25;7.50
77354;PMS7003;66422;51.202;19.936;2024-03-23T21:29:28;9.50;9.50;5.50
77354;PMS7003;66422;51.202;19.936;2024-03-23T21:44:47;14.50;10.50;8.00
77354;PMS7003;66422;51.202;19.936;2024-03-23T22:00:07;12.00;12.00;8.00
77354;PMS7003;66422;51.202;19.936;2024-03-23T22:15:34;17.00;9.67;8.33
77354;PMS7003;66422;51.202;19.936;2024-03-23T22:30:57;12.25;8.75;7.50
77354;PMS7003;66422;51.202;19.936;2024-03-23T22:46:19;16.00;12.00;9.00
77354;PMS7003;66422;51.202;19.936;2024-03-23T23:01:39;20.67;16.00;11.33
77354;PMS7003;66422;51.202;19.936;2024-03-23T23:16:58;18.75;11.75;8.00
77354;PMS7003;66422;51.202;19.936;2024-03-23T23:32:18;15.50;9.00;6.00
77354;PMS7003;66422;51.202;19.936;2024-03-23T23:47:38;13.50;9.00;6.00
